Time;durP1;ratioP1;P1;durP2;ratioP2;P2;SDS_P1;SDS_P2;PMS_P1;PMS_P2;Temp;Humidity;BMP_temperature;BMP_pressure;BME280_temperature;BME280_humidity;BME280_pressure;Samples;Min_cycle;Max_cycle;Signal;HPM_P1;HPM_P2
2022/04/24 00:01:06;;;;;;;;;;;12.90;99.90;;;;;;5046058;28;20079;-59
2022/04/24 00:03:32;;;;;;;;;;;12.80;99.90;;;;;;5046850;28;20266;-51
2022/04/24 00:05:57;;;;;;;;;;;12.90;99.90;;;;;;5050775;28;19913;-50
2022/04/24 00:08:23;;;;;;;;;;;12.90;99.90;;;;;;5048351;28;20406;-56
2022/04/24 00:10:48;;;;;;;;;;;12.90;99.90;;;;;;5044913;28;19909;-64
2022/04/24 00:13:14;;;;;;;;;;;12.90;99.90;;;;;;5043880;28;19923;-51
2022/04/24 00:15:39;;;;;;;;;;;12.90;99.90;;;;;;5053465;28;19912;-52
2022/04/24 00:18:05;;;;;;;;;;;12.80;99.90;;;;;;5045476;28;19939;-51
2022/04/24 00:20:30;;;;;;;;;;;12.90;99.90;;;;;;5052394;28;19913;-51
2022/04/24 00:22:56;;;;;;;;;;;12.80;99.90;;;;;;5046232;28;19916;-61
2022/04/24 00:25:22;;;;;;;;;;;12.90;99.90;;;;;;5049466;28;20019;-52
2022/04/24 00:27:47;;;;;;;;;;;12.90;99.90;;;;;;5052496;28;19905;-50
2022/04/24 00:30:13;;;;;;;;;;;12.80;99.90;;;;;;5054051;28;19912;-61
2022/04/24 00:32:38;;;;;;;;;;;12.80;99.90;;;;;;5053075;28;20017;-55
2022/04/24 00:35:04;;;;;;;;;;;12.80;99.90;;;;;;5055722;28;19916;-55
2022/04/24 00:37:30;;;;;;;;;;;12.70;99.90;;;;;;5046075;28;19917;-55
2022/04/24 00:39:55;;;;;;;;;;;12.80;99.90;;;;;;5052286;28;19931;-55
2022/04/24 00:42:21;;;;;;;;;;;12.70;99.90;;;;;;5057496;28;20239;-51
2022/04/24 00:44:46;;;;;;;;;;;12.70;99.90;;;;;;5052933;28;19995;-51
2022/04/24 00:47:18;;;;;;;;;;;12.70;99.90;;;;;;5052861;28;19927;-58
2022/04/24 00:49:45;;;;;;;;;;;12.70;99.90;;;;;;5050326;28;19963;-56
2022/04/24 00:52:11;;;;;;;;;;;12.60;99.90;;;;;;5051184;28;19970;-54
2022/04/24 00:54:37;;;;;;;;;;;12.60;99.90;;;;;;5057576;28;19908;-51
2022/04/24 00:57:05;;;;;;;;;;;12.60;99.90;;;;;;5038532;28;19917;-54
2022/04/24 00:59:30;;;;;;;;;;;12.60;99.90;;;;;;5054856;28;20363;-54
2022/04/24 01:01:56;;;;;;;;;;;12.50;99.90;;;;;;5048115;28;19975;-51
2022/04/24 01:04:21;;;;;;;;;;;12.50;99.90;;;;;;5051827;28;20447;-50
2022/04/24 01:06:47;;;;;;;;;;;12.50;99.90;;;;;;5050214;28;19916;-52
2022/04/24 01:09:14;;;;;;;;;;;12.50;99.90;;;;;;5051384;28;19917;-49
2022/04/24 01:11:40;;;;;;;;;;;12.40;99.90;;;;;;5050298;28;19916;-54
2022/04/24 01:14:06;;;;;;;;;;;12.40;99.90;;;;;;5049298;28;20374;-53
2022/04/24 01:16:31;;;;;;;;;;;12.40;99.90;;;;;;5049572;28;20046;-51
2022/04/24 01:18:57;;;;;;;;;;;12.30;99.90;;;;;;5049180;28;19913;-49
2022/04/24 01:21:22;;;;;;;;;;;12.30;99.90;;;;;;5053441;28;19909;-49
2022/04/24 01:23:48;;;;;;;;;;;12.30;99.90;;;;;;5046639;28;19986;-54
2022/04/24 01:26:13;;;;;;;;;;;12.30;99.90;;;;;;5049449;28;19909;-50
2022/04/24 01:28:39;;;;;;;;;;;12.30;99.90;;;;;;5049785;28;19912;-49
2022/04/24 01:31:05;;;;;;;;;;;12.20;99.90;;;;;;5049473;28;20004;-53
2022/04/24 01:33:31;;;;;;;;;;;12.20;99.90;;;;;;5054342;28;19916;-51
2022/04/24 01:35:57;;;;;;;;;;;12.20;99.90;;;;;;5048888;28;19908;-60
2022/04/24 01:38:22;;;;;;;;;;;12.20;99.90;;;;;;5048164;28;20551;-53
2022/04/24 01:40:48;;;;;;;;;;;12.20;99.90;;;;;;5048690;28;19926;-49
2022/04/24 01:43:13;;;;;;;;;;;12.20;99.90;;;;;;5049966;28;19951;-59
2022/04/24 01:45:39;;;;;;;;;;;12.10;99.90;;;;;;5051040;28;21461;-50
2022/04/24 01:48:04;;;;;;;;;;;12.20;99.90;;;;;;5054083;28;19908;-53
2022/04/24 01:50:30;;;;;;;;;;;12.20;99.90;;;;;;5050199;28;19913;-53
2022/04/24 01:52:55;;;;;;;;;;;12.10;99.90;;;;;;5050926;28;19909;-50
2022/04/24 01:55:21;;;;;;;;;;;12.10;99.90;;;;;;5049890;28;19912;-51
2022/04/24 01:57:46;;;;;;;;;;;12.10;99.90;;;;;;5050712;28;19909;-53
2022/04/24 02:00:12;;;;;;;;;;;12.10;99.90;;;;;;5048724;28;19982;-50
2022/04/24 02:02:38;;;;;;;;;;;12.10;99.90;;;;;;5051761;28;19975;-50
2022/04/24 02:05:03;;;;;;;;;;;12.10;99.90;;;;;;5049329;28;19915;-51
2022/04/24 02:07:29;;;;;;;;;;;12.10;99.90;;;;;;5053996;28;19916;-55
2022/04/24 02:09:55;;;;;;;;;;;12.10;99.90;;;;;;5050411;28;19917;-55
2022/04/24 02:12:20;;;;;;;;;;;12.00;99.90;;;;;;5046085;28;19905;-55
2022/04/24 02:14:46;;;;;;;;;;;12.00;99.90;;;;;;5049537;28;19920;-56
2022/04/24 02:17:11;;;;;;;;;;;12.00;99.90;;;;;;5050076;28;19984;-54
2022/04/24 02:19:37;;;;;;;;;;;11.90;99.90;;;;;;5081541;22;19955;-54
2022/04/24 02:22:02;;;;;;;;;;;11.90;99.90;;;;;;5064387;28;19908;-55
2022/04/24 02:24:28;;;;;;;;;;;11.80;99.90;;;;;;5068159;28;19923;-56
2022/04/24 02:26:54;;;;;;;;;;;11.90;99.90;;;;;;5060328;28;19924;-53
2022/04/24 02:29:19;;;;;;;;;;;11.80;99.90;;;;;;5060329;28;20461;-57
2022/04/24 02:31:45;;;;;;;;;;;11.80;99.90;;;;;;5074181;28;19911;-58
2022/04/24 02:34:10;;;;;;;;;;;11.70;99.90;;;;;;5060180;28;20046;-55
2022/04/24 02:36:36;;;;;;;;;;;11.70;99.90;;;;;;5063127;28;19908;-51
2022/04/24 02:39:01;;;;;;;;;;;11.70;99.90;;;;;;5066663;28;19909;-54
2022/04/24 02:41:27;;;;;;;;;;;11.60;99.90;;;;;;5067462;28;19909;-57
2022/04/24 02:43:53;;;;;;;;;;;11.60;99.90;;;;;;5064961;28;20263;-52
2022/04/24 02:46:18;;;;;;;;;;;11.50;99.90;;;;;;5068230;28;19947;-55
2022/04/24 02:48:44;;;;;;;;;;;11.40;99.90;;;;;;5068583;28;19916;-52
2022/04/24 02:51:09;;;;;;;;;;;11.20;99.90;;;;;;5063846;28;19963;-53
2022/04/24 02:53:35;;;;;;;;;;;11.00;99.90;;;;;;5059071;28;19916;-56
2022/04/24 02:56:00;;;;;;;;;;;10.80;99.90;;;;;;5064989;28;19912;-54
2022/04/24 02:58:26;;;;;;;;;;;10.70;99.90;;;;;;5065182;28;19908;-55
2022/04/24 03:00:51;;;;;;;;;;;10.60;99.90;;;;;;5064476;28;19908;-55
2022/04/24 03:03:18;;;;;;;;;;;10.40;99.90;;;;;;5062394;28;19960;-56
2022/04/24 03:05:45;;;;;;;;;;;10.40;99.90;;;;;;5060623;28;19959;-53
2022/04/24 03:08:10;;;;;;;;;;;10.30;99.90;;;;;;5061201;28;19908;-53
2022/04/24 03:10:36;;;;;;;;;;;10.30;99.90;;;;;;5061170;28;19915;-52
2022/04/24 03:13:01;;;;;;;;;;;10.40;99.90;;;;;;5064859;28;19916;-55
2022/04/24 03:15:27;;;;;;;;;;;10.40;99.90;;;;;;5068806;28;20267;-51
2022/04/24 03:17:54;;;;;;;;;;;10.40;99.90;;;;;;5059537;28;19908;-53
2022/04/24 03:20:20;;;;;;;;;;;10.50;99.90;;;;;;5067406;28;19999;-54
2022/04/24 03:22:46;;;;;;;;;;;10.60;99.90;;;;;;5062249;28;20007;-56
2022/04/24 03:25:11;;;;;;;;;;;10.60;99.90;;;;;;5062385;28;19943;-52
2022/04/24 03:27:38;;;;;;;;;;;10.50;99.90;;;;;;5061086;28;19999;-52
2022/04/24 03:30:04;;;;;;;;;;;10.40;99.90;;;;;;5057481;28;19917;-53
2022/04/24 03:32:30;;;;;;;;;;;10.20;99.90;;;;;;5063581;28;20263;-57
2022/04/24 03:34:55;;;;;;;;;;;10.00;99.90;;;;;;5061841;28;19919;-53
2022/04/24 03:37:21;;;;;;;;;;;9.90;99.90;;;;;;5069012;28;19912;-53
2022/04/24 03:39:46;;;;;;;;;;;9.80;99.90;;;;;;5064913;28;19916;-55
2022/04/24 03:42:12;;;;;;;;;;;9.60;99.90;;;;;;5063164;28;19913;-56
2022/04/24 03:44:37;;;;;;;;;;;9.50;99.90;;;;;;5062621;28;19999;-54
2022/04/24 03:47:03;;;;;;;;;;;9.40;99.90;;;;;;5068227;28;20263;-55
2022/04/24 03:49:28;;;;;;;;;;;9.40;99.90;;;;;;5067173;28;20278;-50
2022/04/24 03:51:54;;;;;;;;;;;9.40;99.90;;;;;;5061202;28;19951;-55
2022/04/24 03:54:20;;;;;;;;;;;9.40;99.90;;;;;;5059865;28;19908;-50
2022/04/24 03:56:45;;;;;;;;;;;9.40;99.90;;;;;;5059386;28;21608;-52
2022/04/24 03:59:11;;;;;;;;;;;9.50;99.90;;;;;;5065725;28;19959;-58
2022/04/24 04:01:36;;;;;;;;;;;9.60;99.90;;;;;;5059393;28;20362;-54
2022/04/24 04:04:02;;;;;;;;;;;9.70;99.90;;;;;;5060282;28;19961;-54
2022/04/24 04:06:27;;;;;;;;;;;9.70;99.90;;;;;;5067414;28;19999;-51
2022/04/24 04:08:53;;;;;;;;;;;9.60;99.90;;;;;;5069750;28;19908;-56
2022/04/24 04:11:18;;;;;;;;;;;9.40;99.90;;;;;;5066803;28;19915;-57
2022/04/24 04:13:44;;;;;;;;;;;9.30;99.90;;;;;;5066573;28;19908;-52
2022/04/24 04:16:09;;;;;;;;;;;9.10;99.90;;;;;;5062372;28;19915;-53
2022/04/24 04:18:35;;;;;;;;;;;9.00;99.90;;;;;;5057650;28;19962;-52
2022/04/24 04:21:00;;;;;;;;;;;8.90;99.90;;;;;;5066734;28;19916;-55
2022/04/24 04:23:25;;;;;;;;;;;8.80;99.90;;;;;;5058716;28;20374;-51
2022/04/24 04:25:51;;;;;;;;;;;8.70;99.90;;;;;;5068442;28;20405;-54
2022/04/24 04:28:16;;;;;;;;;;;8.70;99.90;;;;;;5056980;28;19912;-54
2022/04/24 04:30:42;;;;;;;;;;;8.70;99.90;;;;;;5070082;28;19970;-53
2022/04/24 04:33:09;;;;;;;;;;;8.70;99.90;;;;;;5063357;28;20011;-52
2022/04/24 04:35:35;;;;;;;;;;;8.70;99.90;;;;;;5054346;28;20366;-53
2022/04/24 04:38:00;;;;;;;;;;;8.70;99.90;;;;;;5068689;28;19965;-56
2022/04/24 04:40:26;;;;;;;;;;;8.70;99.90;;;;;;5062020;28;19921;-52
2022/04/24 04:42:51;;;;;;;;;;;8.80;99.90;;;;;;5061842;28;20388;-53
2022/04/24 04:45:17;;;;;;;;;;;8.70;99.90;;;;;;5069159;28;20274;-55
2022/04/24 04:47:43;;;;;;;;;;;8.70;99.90;;;;;;5065536;28;19912;-50
2022/04/24 04:50:09;;;;;;;;;;;8.80;99.90;;;;;;5064680;28;19908;-50
2022/04/24 04:52:35;;;;;;;;;;;8.80;99.90;;;;;;5058500;28;20290;-55
2022/04/24 04:55:00;;;;;;;;;;;8.70;99.90;;;;;;5063198;28;19923;-58
2022/04/24 04:57:26;;;;;;;;;;;8.70;99.90;;;;;;5067005;28;19909;-55
2022/04/24 04:59:51;;;;;;;;;;;8.70;99.90;;;;;;5064077;28;19944;-54
2022/04/24 05:02:17;;;;;;;;;;;8.70;99.90;;;;;;5067614;28;20419;-57
2022/04/24 05:04:43;;;;;;;;;;;8.60;99.90;;;;;;5066806;28;19999;-60
2022/04/24 05:07:10;;;;;;;;;;;8.60;99.90;;;;;;5060662;28;19930;-51
2022/04/24 05:09:35;;;;;;;;;;;8.70;99.90;;;;;;5072235;28;19999;-53
2022/04/24 05:12:01;;;;;;;;;;;8.80;99.90;;;;;;5058512;28;20011;-54
2022/04/24 05:14:26;;;;;;;;;;;9.00;99.90;;;;;;5062610;28;19908;-54
2022/04/24 05:16:52;;;;;;;;;;;9.00;99.90;;;;;;5058600;28;19958;-54
2022/04/24 05:19:17;;;;;;;;;;;9.20;99.90;;;;;;5051694;28;19913;-55
2022/04/24 05:21:43;;;;;;;;;;;9.30;99.90;;;;;;5064200;28;19939;-54
2022/04/24 05:24:08;;;;;;;;;;;9.40;99.90;;;;;;5062229;28;19912;-55
2022/04/24 05:26:33;;;;;;;;;;;9.50;99.90;;;;;;5064040;28;19908;-53
2022/04/24 05:28:59;;;;;;;;;;;9.60;99.90;;;;;;5070922;28;19948;-52
2022/04/24 05:31:24;;;;;;;;;;;9.70;99.90;;;;;;5062288;28;19913;-56
2022/04/24 05:33:50;;;;;;;;;;;9.80;99.90;;;;;;5057628;28;20313;-55
2022/04/24 05:36:15;;;;;;;;;;;9.80;99.90;;;;;;5055343;28;19996;-54
2022/04/24 05:38:41;;;;;;;;;;;9.90;99.90;;;;;;5067969;28;19967;-54
2022/04/24 05:41:06;;;;;;;;;;;10.00;99.90;;;;;;5055119;28;19931;-56
2022/04/24 05:43:32;;;;;;;;;;;10.00;99.90;;;;;;5059650;28;19912;-56
2022/04/24 05:45:57;;;;;;;;;;;10.10;99.90;;;;;;5060833;28;20007;-52
2022/04/24 05:48:23;;;;;;;;;;;10.20;99.90;;;;;;5066907;28;19909;-52
2022/04/24 05:50:48;;;;;;;;;;;10.30;99.90;;;;;;5063324;28;19908;-54
2022/04/24 05:53:14;;;;;;;;;;;10.40;99.90;;;;;;5061659;28;19916;-56
2022/04/24 05:55:40;;;;;;;;;;;10.50;99.90;;;;;;5061981;28;19912;-55
2022/04/24 05:58:06;;;;;;;;;;;10.60;99.90;;;;;;5062382;28;19912;-51
2022/04/24 06:00:31;;;;;;;;;;;10.60;99.90;;;;;;5067285;28;20328;-51
2022/04/24 06:02:57;;;;;;;;;;;10.70;99.90;;;;;;5058647;28;20428;-54
2022/04/24 06:05:23;;;;;;;;;;;10.70;99.90;;;;;;5064775;28;20484;-54
2022/04/24 06:07:49;;;;;;;;;;;10.80;99.90;;;;;;5059839;28;19967;-53
2022/04/24 06:10:15;;;;;;;;;;;10.80;99.90;;;;;;5060902;28;20354;-55
2022/04/24 06:12:47;;;;;;;;;;;10.90;99.90;;;;;;5061893;28;20444;-57
2022/04/24 06:15:15;;;;;;;;;;;11.00;99.90;;;;;;5062492;28;20353;-55
2022/04/24 06:17:43;;;;;;;;;;;11.10;99.90;;;;;;5062570;28;19940;-54
2022/04/24 06:20:09;;;;;;;;;;;11.20;99.90;;;;;;5060680;28;19912;-55
2022/04/24 06:22:46;;;;;;;;;;;11.40;99.90;;;;;;5061696;28;19927;-56
2022/04/24 06:25:16;;;;;;;;;;;11.50;99.90;;;;;;5060253;28;20445;-52
2022/04/24 06:27:42;;;;;;;;;;;11.60;99.90;;;;;;5060094;28;19924;-53
2022/04/24 06:30:07;;;;;;;;;;;11.70;99.90;;;;;;5063936;28;19928;-55
2022/04/24 06:32:38;;;;;;;;;;;11.80;99.90;;;;;;5067270;28;19962;-57
2022/04/24 06:35:04;;;;;;;;;;;11.90;99.90;;;;;;5061669;28;20015;-54
2022/04/24 06:37:29;;;;;;;;;;;11.90;99.90;;;;;;5062818;28;19995;-53
2022/04/24 06:39:55;;;;;;;;;;;12.00;99.90;;;;;;5072124;28;19939;-57
2022/04/24 06:42:21;;;;;;;;;;;12.10;99.90;;;;;;5059959;28;19970;-54
2022/04/24 06:44:47;;;;;;;;;;;12.20;99.90;;;;;;5065717;28;19908;-54
2022/04/24 06:47:12;;;;;;;;;;;12.30;99.90;;;;;;5061815;28;19962;-52
2022/04/24 06:49:37;;;;;;;;;;;12.40;99.90;;;;;;5061933;28;19969;-55
2022/04/24 06:52:03;;;;;;;;;;;12.40;99.90;;;;;;5058724;28;19959;-55
2022/04/24 06:54:28;;;;;;;;;;;12.50;99.90;;;;;;5060136;28;19956;-51
2022/04/24 06:56:54;;;;;;;;;;;12.60;99.90;;;;;;5060758;28;19938;-55
2022/04/24 06:59:19;;;;;;;;;;;12.70;99.90;;;;;;5065001;28;19999;-55
2022/04/24 07:01:45;;;;;;;;;;;12.70;99.90;;;;;;5057626;28;19923;-54
2022/04/24 07:04:10;;;;;;;;;;;12.80;99.90;;;;;;5065025;28;19913;-54
2022/04/24 07:06:36;;;;;;;;;;;12.80;99.90;;;;;;5066973;28;19912;-60
2022/04/24 07:09:01;;;;;;;;;;;12.90;99.90;;;;;;5064712;28;19912;-57
2022/04/24 07:11:27;;;;;;;;;;;12.90;99.90;;;;;;5064077;28;19950;-57
2022/04/24 07:13:52;;;;;;;;;;;13.00;99.90;;;;;;5063616;28;19991;-56
2022/04/24 07:16:18;;;;;;;;;;;13.00;99.90;;;;;;5063800;28;20366;-56
2022/04/24 07:18:43;;;;;;;;;;;13.00;99.90;;;;;;5053245;28;20170;-58
2022/04/24 07:21:09;;;;;;;;;;;13.10;99.90;;;;;;5063058;28;19908;-56
2022/04/24 07:23:35;;;;;;;;;;;13.10;99.90;;;;;;5059266;28;19919;-53
2022/04/24 07:26:01;;;;;;;;;;;13.00;99.90;;;;;;5060571;28;19915;-55
2022/04/24 07:28:26;;;;;;;;;;;12.90;99.90;;;;;;5066105;28;20358;-54
2022/04/24 07:30:52;;;;;;;;;;;13.00;99.90;;;;;;5056637;28;19957;-56
2022/04/24 07:33:17;;;;;;;;;;;13.10;99.90;;;;;;5059414;28;19908;-54
2022/04/24 07:35:43;;;;;;;;;;;13.20;99.90;;;;;;5059393;28;19909;-54
2022/04/24 07:38:08;;;;;;;;;;;13.30;99.90;;;;;;5067250;28;19904;-57
2022/04/24 07:40:35;;;;;;;;;;;13.40;99.90;;;;;;5055845;28;19950;-57
2022/04/24 07:43:05;;;;;;;;;;;13.50;99.90;;;;;;5060068;28;20010;-58
2022/04/24 07:45:32;;;;;;;;;;;13.50;99.90;;;;;;5065569;28;19912;-54
2022/04/24 07:47:58;;;;;;;;;;;13.50;99.90;;;;;;5062674;28;19915;-56
2022/04/24 07:50:25;;;;;;;;;;;13.50;99.90;;;;;;5059000;28;19908;-55
2022/04/24 07:52:50;;;;;;;;;;;13.50;99.90;;;;;;5061829;28;19915;-53
2022/04/24 07:55:17;;;;;;;;;;;13.60;99.90;;;;;;5062111;28;19908;-57
2022/04/24 07:57:49;;;;;;;;;;;13.60;99.90;;;;;;5059037;28;19908;-56
2022/04/24 08:00:15;;;;;;;;;;;13.70;99.90;;;;;;5061631;28;19991;-56
2022/04/24 08:02:57;;;;;;;;;;;13.70;99.90;;;;;;5054376;28;19960;-58
2022/04/24 08:05:25;;;;;;;;;;;13.80;99.90;;;;;;5063113;28;19908;-57
2022/04/24 08:07:51;;;;;;;;;;;13.90;99.90;;;;;;5056234;28;19912;-55
2022/04/24 08:10:17;;;;;;;;;;;13.80;99.90;;;;;;5056274;28;19916;-54
2022/04/24 08:12:43;;;;;;;;;;;13.80;99.90;;;;;;5060128;28;19997;-55
2022/04/24 08:15:09;;;;;;;;;;;13.80;99.90;;;;;;5054160;28;19960;-49
2022/04/24 08:17:34;;;;;;;;;;;13.90;99.90;;;;;;5059372;28;19909;-56
2022/04/24 08:19:59;;;;;;;;;;;14.00;99.90;;;;;;5054074;28;19916;-56
2022/04/24 08:22:25;;;;;;;;;;;14.00;99.90;;;;;;5054265;28;19915;-54
2022/04/24 08:24:50;;;;;;;;;;;14.10;99.90;;;;;;5051557;28;20295;-53
2022/04/24 08:27:16;;;;;;;;;;;14.20;99.90;;;;;;5057101;28;19915;-57
2022/04/24 08:29:41;;;;;;;;;;;14.30;99.90;;;;;;5059663;28;19909;-57
2022/04/24 08:32:07;;;;;;;;;;;14.20;99.90;;;;;;5056999;28;19916;-53
2022/04/24 08:34:32;;;;;;;;;;;14.40;99.90;;;;;;5058926;28;19909;-59
2022/04/24 08:36:58;;;;;;;;;;;14.50;99.90;;;;;;5065043;28;20297;-53
2022/04/24 08:39:23;;;;;;;;;;;14.50;99.90;;;;;;5061932;28;19908;-52
2022/04/24 08:41:49;;;;;;;;;;;14.60;99.90;;;;;;5069481;28;19908;-56
2022/04/24 08:44:14;;;;;;;;;;;14.70;99.90;;;;;;5061030;28;19912;-53
2022/04/24 08:46:40;;;;;;;;;;;14.80;99.90;;;;;;5063664;28;20016;-53
2022/04/24 08:49:08;;;;;;;;;;;14.90;99.90;;;;;;5063970;28;19944;-55
2022/04/24 08:51:34;;;;;;;;;;;15.10;99.90;;;;;;5065126;28;19909;-58
2022/04/24 08:54:00;;;;;;;;;;;15.20;99.90;;;;;;5067289;28;20003;-53
2022/04/24 08:56:25;;;;;;;;;;;15.40;99.90;;;;;;5067229;28;19960;-57
2022/04/24 08:58:51;;;;;;;;;;;15.50;99.90;;;;;;5066160;28;20818;-54
2022/04/24 09:01:16;;;;;;;;;;;15.60;99.90;;;;;;5063592;28;19923;-54
2022/04/24 09:03:42;;;;;;;;;;;15.70;99.90;;;;;;5057243;28;19995;-54
2022/04/24 09:06:18;;;;;;;;;;;15.80;99.90;;;;;;5056870;28;20282;-54
2022/04/24 09:08:43;;;;;;;;;;;15.80;99.90;;;;;;5056720;28;19947;-52
2022/04/24 09:11:09;;;;;;;;;;;15.80;99.90;;;;;;5070113;28;19912;-53
2022/04/24 09:16:20;;;;;;;;;;;15.90;99.90;;;;;;5066687;28;19966;-55
2022/04/24 09:18:48;;;;;;;;;;;16.00;99.90;;;;;;5060970;28;19916;-58
2022/04/24 09:21:14;;;;;;;;;;;16.00;99.90;;;;;;5059476;28;20332;-54
2022/04/24 09:23:42;;;;;;;;;;;16.00;99.90;;;;;;5067096;28;19920;-54
2022/04/24 09:26:13;;;;;;;;;;;15.90;99.90;;;;;;5056561;28;19916;-59
2022/04/24 09:28:39;;;;;;;;;;;15.90;99.90;;;;;;5058238;28;19916;-58
2022/04/24 09:31:05;;;;;;;;;;;16.00;99.90;;;;;;5064511;28;19908;-57
2022/04/24 09:33:40;;;;;;;;;;;16.10;99.90;;;;;;5064234;22;19921;-56
2022/04/24 09:36:06;;;;;;;;;;;16.10;99.90;;;;;;5043215;28;19913;-55
2022/04/24 09:38:38;;;;;;;;;;;16.10;99.90;;;;;;5050188;28;19905;-53
2022/04/24 09:41:03;;;;;;;;;;;16.50;99.90;;;;;;5050094;28;19908;-51
2022/04/24 09:43:29;;;;;;;;;;;16.80;99.90;;;;;;5046064;28;19924;-54
2022/04/24 09:45:54;;;;;;;;;;;17.10;99.90;;;;;;5047154;28;19909;-54
2022/04/24 09:48:20;;;;;;;;;;;17.10;99.90;;;;;;5051074;28;19958;-51
2022/04/24 09:50:48;;;;;;;;;;;17.30;99.90;;;;;;5048565;28;20302;-54
2022/04/24 09:53:15;;;;;;;;;;;17.60;99.90;;;;;;5045846;28;20382;-55
2022/04/24 09:55:43;;;;;;;;;;;17.60;99.90;;;;;;5048524;28;19940;-53
2022/04/24 09:58:09;;;;;;;;;;;17.40;99.90;;;;;;5047605;28;19917;-55
2022/04/24 10:00:34;;;;;;;;;;;17.20;99.90;;;;;;5046565;28;19915;-55
2022/04/24 10:03:01;;;;;;;;;;;17.10;99.90;;;;;;5046826;28;19955;-56
2022/04/24 10:05:28;;;;;;;;;;;17.00;99.90;;;;;;5047523;28;19916;-54
2022/04/24 10:07:54;;;;;;;;;;;17.00;99.90;;;;;;5044566;28;19916;-54
2022/04/24 10:10:20;;;;;;;;;;;17.10;99.90;;;;;;5046412;28;19909;-51
2022/04/24 10:12:48;;;;;;;;;;;17.30;99.90;;;;;;5044528;28;20446;-53
2022/04/24 10:15:16;;;;;;;;;;;17.60;99.90;;;;;;5045653;28;20282;-52
2022/04/24 10:18:00;;;;;;;;;;;17.60;99.90;;;;;;5046487;28;19908;-55
2022/04/24 10:20:31;;;;;;;;;;;17.70;99.90;;;;;;5045560;28;19948;-53
2022/04/24 10:22:58;;;;;;;;;;;17.80;99.90;;;;;;5049264;28;19920;-50
2022/04/24 10:25:37;;;;;;;;;;;17.70;99.90;;;;;;5051096;28;19966;-58
2022/04/24 10:28:13;;;;;;;;;;;17.60;99.90;;;;;;5044532;28;19979;-51
2022/04/24 10:30:39;;;;;;;;;;;17.60;99.90;;;;;;5043465;28;19909;-53
2022/04/24 10:33:18;;;;;;;;;;;17.60;99.90;;;;;;5046249;28;19931;-54
2022/04/24 10:35:48;;;;;;;;;;;17.60;99.90;;;;;;5046076;28;19944;-52
2022/04/24 10:38:14;;;;;;;;;;;17.80;99.90;;;;;;5048423;28;19908;-53
2022/04/24 10:40:39;;;;;;;;;;;17.90;99.90;;;;;;5046215;28;19915;-53
2022/04/24 10:43:07;;;;;;;;;;;17.80;99.90;;;;;;5045184;28;20055;-53
2022/04/24 10:45:44;;;;;;;;;;;17.80;99.90;;;;;;5041327;28;19923;-54
2022/04/24 10:48:19;;;;;;;;;;;17.90;99.90;;;;;;5039516;28;19913;-55
2022/04/24 10:50:46;;;;;;;;;;;17.80;99.90;;;;;;5043115;28;19908;-49
2022/04/24 10:53:12;;;;;;;;;;;17.80;99.90;;;;;;5045690;28;19935;-54
2022/04/24 10:55:38;;;;;;;;;;;17.80;99.90;;;;;;5043502;28;20433;-51
2022/04/24 10:58:05;;;;;;;;;;;17.90;99.90;;;;;;5041249;28;20309;-56
2022/04/24 11:00:35;;;;;;;;;;;18.00;99.90;;;;;;5041327;28;19908;-50
2022/04/24 11:03:07;;;;;;;;;;;18.40;99.90;;;;;;5041765;28;19956;-50
2022/04/24 11:05:36;;;;;;;;;;;18.90;99.90;;;;;;5041112;28;20424;-51
2022/04/24 11:08:05;;;;;;;;;;;19.40;99.90;;;;;;5045665;28;19909;-52
2022/04/24 11:10:39;;;;;;;;;;;19.50;99.90;;;;;;5043454;28;19923;-53
2022/04/24 11:13:04;;;;;;;;;;;19.50;99.90;;;;;;5049019;28;19939;-54
2022/04/24 11:15:30;;;;;;;;;;;19.10;99.90;;;;;;5045043;28;19956;-54
2022/04/24 11:17:55;;;;;;;;;;;18.70;99.90;;;;;;5043430;28;19944;-51
2022/04/24 11:20:21;;;;;;;;;;;18.80;99.90;;;;;;5047664;28;19908;-51
2022/04/24 11:22:53;;;;;;;;;;;18.70;99.90;;;;;;5048470;28;19916;-53
2022/04/24 11:25:21;;;;;;;;;;;18.60;99.90;;;;;;5048570;28;20286;-54
2022/04/24 11:27:53;;;;;;;;;;;18.40;99.90;;;;;;5046432;28;19955;-51
2022/04/24 11:30:20;;;;;;;;;;;18.30;99.90;;;;;;5047274;28;19982;-49
2022/04/24 11:32:58;;;;;;;;;;;18.30;99.90;;;;;;5047344;28;20359;-53
2022/04/24 11:35:25;;;;;;;;;;;18.80;99.90;;;;;;5045449;28;19935;-53
2022/04/24 11:37:51;;;;;;;;;;;19.40;99.90;;;;;;5048011;28;19951;-54
2022/04/24 11:40:16;;;;;;;;;;;20.00;99.90;;;;;;5041529;28;19962;-56
2022/04/24 11:42:42;;;;;;;;;;;20.10;99.90;;;;;;5041959;28;20743;-55
2022/04/24 11:50:50;;;;;;;;;;;20.80;99.90;;;;;;5043256;28;19943;-50
2022/04/24 11:53:16;;;;;;;;;;;20.50;99.90;;;;;;5042839;28;19928;-52
2022/04/24 11:58:41;;;;;;;;;;;19.60;99.90;;;;;;5011837;28;20390;-53
2022/04/24 12:01:07;;;;;;;;;;;19.40;99.90;;;;;;5042451;28;20378;-54
2022/04/24 12:03:33;;;;;;;;;;;19.10;99.90;;;;;;5045537;28;19919;-57
2022/04/24 12:06:06;;;;;;;;;;;18.90;99.90;;;;;;5045980;28;19909;-54
2022/04/24 12:08:39;;;;;;;;;;;18.80;99.90;;;;;;5045742;28;19913;-54
2022/04/24 12:11:05;;;;;;;;;;;18.90;99.90;;;;;;5044256;28;19909;-52
2022/04/24 12:13:32;;;;;;;;;;;18.90;99.90;;;;;;5044947;28;19915;-57
2022/04/24 12:15:57;;;;;;;;;;;18.90;99.90;;;;;;5041321;28;19913;-54
2022/04/24 12:18:23;;;;;;;;;;;18.90;99.90;;;;;;5042130;28;19920;-52
2022/04/24 12:20:50;;;;;;;;;;;19.70;99.90;;;;;;5042914;28;19912;-54
2022/04/24 12:23:16;;;;;;;;;;;19.80;99.90;;;;;;5044773;28;19920;-55
2022/04/24 12:26:09;;;;;;;;;;;19.40;99.90;;;;;;5043914;28;20283;-51
2022/04/24 12:28:41;;;;;;;;;;;19.80;99.90;;;;;;5042212;28;19916;-55
2022/04/24 12:31:07;;;;;;;;;;;20.00;99.90;;;;;;5046773;28;19916;-52
2022/04/24 12:33:44;;;;;;;;;;;20.20;99.90;;;;;;5040007;28;19917;-57
2022/04/24 12:36:13;;;;;;;;;;;19.80;99.90;;;;;;5046324;28;19908;-55
2022/04/24 12:38:39;;;;;;;;;;;19.60;99.90;;;;;;5044515;28;20397;-52
2022/04/24 12:41:08;;;;;;;;;;;19.40;99.90;;;;;;5042686;28;19909;-54
2022/04/24 12:43:34;;;;;;;;;;;19.30;99.90;;;;;;5044036;28;19913;-56
2022/04/24 12:45:59;;;;;;;;;;;19.40;99.90;;;;;;5042564;28;19909;-54
2022/04/24 12:48:25;;;;;;;;;;;19.70;99.90;;;;;;5042989;28;19909;-53
2022/04/24 12:50:51;;;;;;;;;;;19.70;99.90;;;;;;5041569;28;19935;-56
2022/04/24 12:53:17;;;;;;;;;;;19.80;99.90;;;;;;5046619;28;19909;-53
2022/04/24 12:55:44;;;;;;;;;;;20.40;99.90;;;;;;5044788;28;19908;-52
2022/04/24 12:58:14;;;;;;;;;;;20.30;99.90;;;;;;5043858;28;19916;-51
2022/04/24 13:00:43;;;;;;;;;;;20.20;99.90;;;;;;5040809;28;19917;-54
2022/04/24 13:03:12;;;;;;;;;;;20.20;99.90;;;;;;5040213;28;19921;-49
2022/04/24 13:05:38;;;;;;;;;;;20.80;99.90;;;;;;5043182;28;19948;-53
2022/04/24 13:08:05;;;;;;;;;;;21.40;99.90;;;;;;5038024;28;19923;-52
2022/04/24 13:10:30;;;;;;;;;;;21.50;99.90;;;;;;5040026;28;20083;-54
2022/04/24 13:13:01;;;;;;;;;;;22.00;99.90;;;;;;5042476;28;20102;-50
2022/04/24 13:15:32;;;;;;;;;;;22.50;99.90;;;;;;5046700;28;19909;-53
2022/04/24 13:18:07;;;;;;;;;;;22.30;98.50;;;;;;5046080;28;20033;-55
2022/04/24 13:20:40;;;;;;;;;;;21.90;98.00;;;;;;5047725;28;19912;-55
2022/04/24 13:23:07;;;;;;;;;;;21.20;98.90;;;;;;5055989;28;19956;-50
2022/04/24 13:25:33;;;;;;;;;;;20.70;98.60;;;;;;5046544;28;20390;-54
2022/04/24 13:27:59;;;;;;;;;;;20.40;99.90;;;;;;5048027;28;19913;-51
2022/04/24 13:30:24;;;;;;;;;;;20.50;99.90;;;;;;5048256;28;19909;-53
2022/04/24 13:32:50;;;;;;;;;;;21.20;99.90;;;;;;5046940;28;19912;-51
2022/04/24 13:35:16;;;;;;;;;;;21.90;98.00;;;;;;5047381;28;19913;-51
2022/04/24 13:40:25;;;;;;;;;;;22.70;96.80;;;;;;5041010;28;19916;-55
2022/04/24 13:42:50;;;;;;;;;;;22.70;96.10;;;;;;5048476;28;19916;-53
2022/04/24 13:45:16;;;;;;;;;;;22.50;95.50;;;;;;5047717;28;19913;-50
2022/04/24 13:47:42;;;;;;;;;;;22.00;96.40;;;;;;5050929;28;19967;-54
2022/04/24 13:50:07;;;;;;;;;;;21.50;97.50;;;;;;5050222;28;20436;-51
2022/04/24 13:52:33;;;;;;;;;;;21.20;97.20;;;;;;5047847;28;19951;-51
2022/04/24 13:54:59;;;;;;;;;;;21.00;97.10;;;;;;5051105;28;19909;-51
2022/04/24 13:57:25;;;;;;;;;;;20.70;97.90;;;;;;5050031;28;20050;-51
2022/04/24 13:59:51;;;;;;;;;;;20.70;96.70;;;;;;5050197;28;20286;-53
2022/04/24 14:02:16;;;;;;;;;;;21.10;95.80;;;;;;5047390;28;19908;-54
2022/04/24 14:04:42;;;;;;;;;;;21.40;97.10;;;;;;5050772;28;19938;-54
2022/04/24 14:07:08;;;;;;;;;;;21.80;94.70;;;;;;5050781;28;20370;-52
2022/04/24 14:09:35;;;;;;;;;;;22.20;94.40;;;;;;5047399;28;20003;-54
2022/04/24 14:12:00;;;;;;;;;;;22.10;95.00;;;;;;5047526;28;19909;-55
2022/04/24 14:14:26;;;;;;;;;;;22.30;94.00;;;;;;5042501;28;20453;-51
2022/04/24 14:16:52;;;;;;;;;;;22.10;94.30;;;;;;5048479;28;19912;-53
2022/04/24 14:19:18;;;;;;;;;;;22.10;95.00;;;;;;5051093;28;19915;-51
2022/04/24 14:21:43;;;;;;;;;;;22.30;94.70;;;;;;5064988;28;19915;-57
2022/04/24 14:24:09;;;;;;;;;;;21.70;93.50;;;;;;5049990;28;20126;-55
2022/04/24 14:26:34;;;;;;;;;;;21.50;93.70;;;;;;5051318;28;20422;-55
2022/04/24 14:29:00;;;;;;;;;;;21.20;93.80;;;;;;5045638;28;19970;-56